Time;durP1;ratioP1;P1;durP2;ratioP2;P2;SDS_P1;SDS_P2;PMS_P1;PMS_P2;Temp;Humidity;BMP_temperature;BMP_pressure;BME280_temperature;BME280_humidity;BME280_pressure;Samples;Min_cycle;Max_cycle;Signal;HPM_P1;HPM_P2
2023/02/22 00:00:41;;;;;;;13.35;5.53;;;6.60;1.00;;;;;;5091799;28;20473;-56
2023/02/22 00:03:11;;;;;;;14.45;5.85;;;6.40;1.00;;;;;;5092703;28;20397;-56
2023/02/22 00:05:43;;;;;;;16.65;5.70;;;6.50;1.00;;;;;;5091877;28;21205;-57
2023/02/22 00:08:10;;;;;;;16.03;6.10;;;6.50;1.00;;;;;;5092425;28;20480;-56
2023/02/22 00:10:39;;;;;;;18.50;6.50;;;6.50;1.00;;;;;;5092242;28;20385;-56
2023/02/22 00:13:07;;;;;;;12.77;5.67;;;6.40;1.00;;;;;;5092990;28;20436;-56
2023/02/22 00:15:33;;;;;;;11.87;5.00;;;6.40;1.00;;;;;;5091941;28;20444;-56
2023/02/22 00:17:59;;;;;;;14.02;6.10;;;6.30;1.00;;;;;;5092433;28;20758;-57
2023/02/22 00:20:24;;;;;;;17.70;5.43;;;6.40;1.00;;;;;;5091037;28;20954;-56
2023/02/22 00:22:52;;;;;;;16.55;5.80;;;6.40;1.00;;;;;;5092406;28;20910;-56
2023/02/22 00:25:20;;;;;;;15.30;5.47;;;6.50;1.00;;;;;;5092051;28;20398;-57
2023/02/22 00:27:52;;;;;;;15.43;6.63;;;6.60;1.00;;;;;;5092233;28;20782;-56
2023/02/22 00:30:21;;;;;;;14.35;5.55;;;8.00;1.00;;;;;;5091025;28;20390;-56
2023/02/22 00:32:48;;;;;;;12.27;5.50;;;6.50;99.90;;;;;;5092366;28;20386;-57
2023/02/22 00:35:16;;;;;;;16.05;6.00;;;6.70;96.00;;;;;;5092398;28;20473;-56
2023/02/22 00:37:42;;;;;;;12.75;5.30;;;6.70;1.00;;;;;;5090910;28;20402;-56
2023/02/22 00:40:14;;;;;;;16.27;6.10;;;6.60;1.00;;;;;;5091994;28;20386;-56
2023/02/22 00:42:39;;;;;;;13.18;5.85;;;7.80;1.00;;;;;;5091114;28;20378;-57
2023/02/22 00:45:06;;;;;;;15.55;5.78;;;6.90;1.00;;;;;;5091984;28;20398;-56
2023/02/22 00:47:32;;;;;;;14.38;6.40;;;6.70;1.00;;;;;;5090250;28;20401;-57
2023/02/22 00:49:59;;;;;;;13.00;5.45;;;7.20;1.00;;;;;;5092158;28;20416;-56
2023/02/22 00:52:25;;;;;;;16.73;6.40;;;6.70;1.00;;;;;;5090723;28;20398;-56
2023/02/22 00:54:50;;;;;;;14.97;5.80;;;6.60;1.00;;;;;;5089471;28;20534;-56
2023/02/22 00:57:18;;;;;;;18.40;6.40;;;6.60;1.00;;;;;;5091496;28;20866;-56
2023/02/22 00:59:43;;;;;;;15.82;5.85;;;6.50;1.00;;;;;;5091347;28;20405;-57
2023/02/22 01:02:09;;;;;;;15.30;6.10;;;6.50;1.00;;;;;;5091618;28;20425;-56
2023/02/22 01:04:34;;;;;;;15.05;5.93;;;6.40;1.00;;;;;;5090981;28;20452;-56
2023/02/22 01:07:00;;;;;;;12.87;5.90;;;6.50;1.00;;;;;;5090255;28;20398;-56
2023/02/22 01:09:27;;;;;;;12.10;5.40;;;6.40;1.00;;;;;;5090633;28;20392;-56
2023/02/22 01:11:54;;;;;;;15.88;5.60;;;6.40;1.00;;;;;;5091875;28;20386;-56
2023/02/22 01:14:22;;;;;;;14.00;5.95;;;6.40;21.10;;;;;;5091191;28;20438;-56
2023/02/22 01:16:49;;;;;;;15.38;6.20;;;6.40;99.90;;;;;;5089897;28;20412;-57
2023/02/22 01:19:15;;;;;;;12.30;6.00;;;6.50;99.90;;;;;;5091474;28;20441;-57
2023/02/22 01:21:41;;;;;;;15.45;6.28;;;6.40;1.00;;;;;;5090916;28;20374;-58
2023/02/22 01:24:07;;;;;;;14.13;6.60;;;6.30;99.90;;;;;;5091296;28;20785;-56
2023/02/22 01:26:33;;;;;;;16.33;6.40;;;6.40;99.90;;;;;;5090419;28;20428;-57
2023/02/22 01:28:59;;;;;;;16.83;6.63;;;6.40;1.00;;;;;;5091054;28;20724;-56
2023/02/22 01:31:26;;;;;;;13.13;5.90;;;7.80;1.00;;;;;;5088602;28;20409;-56
2023/02/22 01:33:52;;;;;;;15.52;6.72;;;6.30;1.00;;;;;;5090481;28;20792;-56
2023/02/22 01:36:18;;;;;;;13.75;6.10;;;6.30;26.00;;;;;;5090916;28;20491;-56
2023/02/22 01:38:44;;;;;;;18.58;7.00;;;6.20;10.90;;;;;;5089897;28;20418;-56
2023/02/22 01:41:11;;;;;;;12.67;6.43;;;6.10;40.40;;;;;;5090617;28;20386;-56
2023/02/22 01:43:37;;;;;;;13.18;6.22;;;6.10;99.90;;;;;;5090345;28;20446;-57
2023/02/22 01:46:07;;;;;;;10.98;6.05;;;7.40;99.90;;;;;;5090323;28;20386;-55
2023/02/22 01:48:39;;;;;;;14.50;6.35;;;6.10;1.00;;;;;;5088960;28;20906;-55
2023/02/22 01:51:25;;;;;;;14.10;6.72;;;6.20;1.00;;;;;;5090846;28;20393;-55
2023/02/22 01:53:51;;;;;;;15.18;6.95;;;6.20;1.00;;;;;;5089215;28;20804;-55
2023/02/22 01:56:18;;;;;;;14.80;6.13;;;8.10;1.00;;;;;;5089908;28;20524;-56
2023/02/22 01:58:49;;;;;;;16.25;7.65;;;6.20;1.00;;;;;;5090436;28;20386;-55
2023/02/22 02:01:16;;;;;;;18.95;8.50;;;6.20;1.00;;;;;;5090627;28;20382;-55
2023/02/22 02:03:43;;;;;;;14.68;7.22;;;6.10;99.90;;;;;;5086538;28;20390;-55
2023/02/22 02:06:13;;;;;;;14.68;7.38;;;7.00;1.00;;;;;;5090075;28;20386;-55
2023/02/22 02:08:50;;;;;;;13.60;6.83;;;6.40;90.90;;;;;;5089915;28;20498;-55
2023/02/22 02:11:20;;;;;;;16.52;7.20;;;6.00;99.90;;;;;;5090469;28;20394;-55
2023/02/22 02:13:46;;;;;;;17.85;7.47;;;6.10;1.00;;;;;;5089913;28;20386;-55
2023/02/22 02:16:12;;;;;;;15.88;7.80;;;6.10;99.90;;;;;;5090161;28;20894;-55
2023/02/22 02:18:39;;;;;;;16.50;7.60;;;6.00;99.90;;;;;;5089507;28;20407;-55
2023/02/22 02:21:49;;;;;;;15.90;7.30;;;5.90;99.90;;;;;;5089635;28;20800;-56
2023/02/22 02:24:20;;;;;;;18.35;7.75;;;5.80;1.00;;;;;;5089937;28;20390;-55
2023/02/22 02:27:05;;;;;;;17.77;8.13;;;6.90;1.00;;;;;;5089951;28;20402;-55
2023/02/22 02:29:44;;;;;;;14.70;7.45;;;5.80;1.00;;;;;;5089463;28;20858;-56
2023/02/22 02:32:34;;;;;;;16.53;7.63;;;5.90;1.00;;;;;;5090243;28;20454;-55
2023/02/22 02:35:24;;;;;;;17.40;8.80;;;5.80;1.00;;;;;;5089685;28;20402;-55
2023/02/22 02:38:41;;;;;;;18.50;7.93;;;5.90;1.00;;;;;;5090039;28;20401;-55
2023/02/22 02:41:25;;;;;;;18.05;8.43;;;5.90;1.00;;;;;;5065731;28;20895;-55
2023/02/22 02:44:01;;;;;;;16.90;8.90;;;5.90;99.90;;;;;;5089810;28;20414;-55
2023/02/22 02:47:06;;;;;;;17.05;9.15;;;5.80;1.00;;;;;;5088104;28;20409;-55
2023/02/22 02:49:45;;;;;;;18.27;9.63;;;6.20;1.00;;;;;;5046113;28;20401;-55
2023/02/22 02:52:12;;;;;;;17.67;9.10;;;5.80;1.00;;;;;;5085229;28;20394;-55
2023/02/22 02:54:39;;;;;;;19.73;9.52;;;5.70;1.00;;;;;;5088697;28;20488;-55
2023/02/22 02:57:05;;;;;;;16.60;8.75;;;6.50;29.70;;;;;;5089475;28;20386;-55
2023/02/22 02:59:34;;;;;;;20.52;10.13;;;5.80;99.90;;;;;;5088701;28;20417;-55
2023/02/22 03:02:24;;;;;;;19.58;9.70;;;5.60;99.90;;;;;;5089421;28;20927;-55
2023/02/22 03:05:06;;;;;;;18.17;9.33;;;5.60;1.00;;;;;;5089334;28;20461;-55
2023/02/22 03:07:59;;;;;;;21.95;9.45;;;5.80;1.00;;;;;;5088285;28;20390;-56
2023/02/22 03:11:13;;;;;;;19.88;9.68;;;5.70;40.20;;;;;;5088536;28;20767;-55
2023/02/22 03:14:03;;;;;;;15.90;8.70;;;5.70;50.00;;;;;;5084802;28;21137;-55
2023/02/22 03:16:39;;;;;;;22.20;10.10;;;5.70;7.20;;;;;;5088534;28;20814;-55
2023/02/22 03:19:17;;;;;;;15.45;8.57;;;5.70;1.00;;;;;;5089495;28;20432;-55
2023/02/22 03:22:01;;;;;;;16.70;9.52;;;5.70;41.20;;;;;;5088542;28;20394;-55
2023/02/22 03:24:31;;;;;;;20.90;10.20;;;5.60;99.90;;;;;;5088802;28;20402;-55
2023/02/22 03:27:10;;;;;;;17.10;9.15;;;5.60;99.90;;;;;;5089424;28;20406;-55
2023/02/22 03:29:43;;;;;;;15.35;8.45;;;7.00;99.90;;;;;;5088372;28;20923;-55
2023/02/22 03:32:15;;;;;;;16.38;8.30;;;6.20;99.90;;;;;;5089543;28;20393;-55
2023/02/22 03:34:46;;;;;;;18.08;8.25;;;5.60;1.20;;;;;;5088288;28;21031;-56
2023/02/22 03:37:18;;;;;;;15.07;8.65;;;5.70;1.00;;;;;;5089338;28;20390;-55
2023/02/22 03:39:46;;;;;;;13.48;8.27;;;5.70;1.00;;;;;;5088470;28;20420;-56
2023/02/22 03:42:21;;;;;;;15.63;7.70;;;5.70;1.00;;;;;;5088516;28;20394;-56
2023/02/22 03:44:49;;;;;;;16.02;8.20;;;5.80;99.90;;;;;;5088818;28;20385;-55
2023/02/22 03:47:21;;;;;;;16.23;8.00;;;7.40;99.90;;;;;;5088620;28;20764;-55
2023/02/22 03:50:00;;;;;;;14.90;8.13;;;5.80;1.00;;;;;;5089078;28;20378;-56
2023/02/22 03:52:26;;;;;;;20.08;7.85;;;6.30;1.00;;;;;;5087898;28;20406;-56
2023/02/22 03:54:52;;;;;;;16.17;7.55;;;7.50;1.00;;;;;;5088910;28;20426;-56
2023/02/22 03:57:25;;;;;;;19.20;7.40;;;6.00;99.90;;;;;;5089101;28;20461;-56
2023/02/22 03:59:51;;;;;;;17.48;8.02;;;6.80;1.00;;;;;;5089238;28;20818;-56
2023/02/22 04:02:17;;;;;;;13.90;7.60;;;5.70;1.00;;;;;;5090444;28;20397;-56
2023/02/22 04:04:44;;;;;;;15.40;7.45;;;5.70;99.90;;;;;;5066785;28;20398;-55
2023/02/22 04:07:10;;;;;;;12.98;7.45;;;5.70;99.90;;;;;;5092643;28;20398;-55
2023/02/22 04:09:37;;;;;;;16.70;8.10;;;7.00;99.90;;;;;;5085369;28;20394;-55
2023/02/22 04:12:03;;;;;;;15.65;7.57;;;5.70;99.90;;;;;;5092562;28;20385;-56
2023/02/22 04:14:29;;;;;;;15.35;7.20;;;5.80;1.00;;;;;;5090816;28;20410;-56
2023/02/22 04:16:54;;;;;;;16.65;6.95;;;5.80;1.00;;;;;;5091938;28;20390;-56
2023/02/22 04:19:20;;;;;;;13.57;6.70;;;5.70;1.00;;;;;;5092265;28;20836;-56
2023/02/22 04:21:46;;;;;;;13.60;7.30;;;5.60;1.00;;;;;;5091642;28;20839;-56
2023/02/22 04:24:11;;;;;;;12.93;6.87;;;5.50;99.90;;;;;;5091645;28;20695;-56
2023/02/22 04:26:37;;;;;;;13.45;6.45;;;5.40;1.00;;;;;;5091525;28;20437;-56
2023/02/22 04:29:03;;;;;;;14.63;7.17;;;5.30;1.00;;;;;;5092242;28;20896;-55
2023/02/22 04:31:30;;;;;;;16.48;6.75;;;5.30;1.00;;;;;;5078372;28;20422;-55
2023/02/22 04:33:55;;;;;;;15.35;6.80;;;5.30;1.00;;;;;;5080145;28;20409;-56
2023/02/22 04:36:21;;;;;;;13.43;6.67;;;5.30;99.90;;;;;;5091721;28;20394;-56
2023/02/22 04:38:47;;;;;;;15.32;6.97;;;5.30;99.90;;;;;;5091759;28;20401;-56
2023/02/22 04:41:13;;;;;;;13.13;6.40;;;5.20;1.00;;;;;;5072931;28;20423;-56
2023/02/22 04:43:39;;;;;;;15.13;6.57;;;5.10;99.90;;;;;;5060711;28;20390;-55
2023/02/22 04:46:04;;;;;;;16.50;7.47;;;5.90;99.90;;;;;;5089082;28;20398;-55
2023/02/22 04:48:30;;;;;;;16.00;7.00;;;5.20;99.90;;;;;;5086817;28;20957;-55
2023/02/22 04:50:56;;;;;;;16.67;6.85;;;6.60;99.90;;;;;;5085768;28;20437;-55
2023/02/22 04:53:22;;;;;;;16.83;7.90;;;5.10;99.90;;;;;;5064483;28;20413;-55
2023/02/22 04:55:47;;;;;;;13.38;6.53;;;6.20;99.90;;;;;;5088420;28;20433;-55
2023/02/22 04:58:13;;;;;;;15.40;6.67;;;5.20;99.90;;;;;;5091734;28;20750;-55
2023/02/22 05:00:38;;;;;;;12.93;6.67;;;5.20;99.90;;;;;;5090404;28;20401;-55
2023/02/22 05:03:04;;;;;;;14.40;7.20;;;5.30;99.90;;;;;;5091926;28;20397;-55
2023/02/22 05:05:30;;;;;;;14.60;6.73;;;6.50;1.00;;;;;;5090662;28;20402;-55
2023/02/22 05:07:55;;;;;;;15.80;6.78;;;6.40;1.00;;;;;;5091860;28;20450;-55
2023/02/22 05:10:22;;;;;;;15.00;7.30;;;7.00;1.00;;;;;;5091253;28;20389;-56
2023/02/22 05:12:47;;;;;;;16.92;7.50;;;5.20;99.90;;;;;;5077096;28;20406;-55
2023/02/22 05:15:20;;;;;;;13.30;6.95;;;5.20;99.90;;;;;;5067440;28;20410;-55
2023/02/22 05:17:46;;;;;;;14.25;7.07;;;5.20;99.90;;;;;;5092046;28;20916;-55
2023/02/22 05:20:28;;;;;;;15.38;6.53;;;5.20;99.90;;;;;;5090284;28;20397;-55
2023/02/22 05:22:54;;;;;;;14.00;6.53;;;5.30;99.90;;;;;;5091138;28;20386;-55
2023/02/22 05:25:20;;;;;;;13.27;6.40;;;5.10;99.90;;;;;;5091167;28;20862;-55
2023/02/22 05:27:54;;;;;;;14.47;6.80;;;5.40;1.00;;;;;;5079310;28;20506;-55
2023/02/22 05:30:23;;;;;;;13.77;7.18;;;6.30;1.00;;;;;;5069095;28;20848;-55
2023/02/22 05:32:49;;;;;;;13.82;6.50;;;5.20;1.00;;;;;;5071145;28;20413;-55
2023/02/22 05:35:15;;;;;;;14.23;7.10;;;6.30;1.00;;;;;;5070359;28;20492;-55
2023/02/22 05:37:41;;;;;;;14.30;6.60;;;5.20;1.00;;;;;;5056116;28;21162;-55
2023/02/22 05:40:09;;;;;;;14.43;6.57;;;7.20;1.00;;;;;;5061493;28;20480;-55
2023/02/22 05:42:36;;;;;;;14.73;7.20;;;5.30;1.00;;;;;;5053580;28;20439;-56
2023/02/22 05:45:02;;;;;;;17.02;6.95;;;6.80;1.00;;;;;;5060875;28;20445;-56
2023/02/22 05:47:28;;;;;;;15.02;6.70;;;5.30;1.00;;;;;;5074234;28;20733;-55
2023/02/22 05:49:54;;;;;;;15.40;6.97;;;6.00;1.00;;;;;;5063128;28;20399;-55
2023/02/22 05:52:20;;;;;;;17.30;7.20;;;6.40;1.00;;;;;;5067772;28;20805;-55
2023/02/22 05:54:46;;;;;;;12.87;6.10;;;7.20;99.90;;;;;;5073968;28;20437;-55
2023/02/22 05:57:11;;;;;;;13.30;6.70;;;5.30;99.90;;;;;;5072934;28;20748;-55
2023/02/22 05:59:37;;;;;;;16.60;7.37;;;6.90;88.50;;;;;;5082264;28;20396;-55
2023/02/22 06:02:02;;;;;;;17.20;6.80;;;5.40;1.00;;;;;;5073364;28;20411;-55
2023/02/22 06:04:29;;;;;;;13.87;7.03;;;6.80;1.00;;;;;;5070935;28;20397;-56
2023/02/22 06:06:54;;;;;;;14.57;6.78;;;5.30;1.00;;;;;;5072646;28;20387;-55
2023/02/22 06:09:20;;;;;;;14.67;7.10;;;5.30;1.00;;;;;;5082820;28;20397;-56
2023/02/22 06:11:46;;;;;;;14.57;6.45;;;6.00;1.00;;;;;;5084537;28;20855;-56
2023/02/22 06:14:12;;;;;;;14.20;6.60;;;5.10;1.00;;;;;;5073724;28;20416;-55
2023/02/22 06:16:38;;;;;;;15.10;6.68;;;5.10;1.00;;;;;;5077026;28;20382;-55
2023/02/22 06:19:04;;;;;;;14.77;6.40;;;6.10;99.90;;;;;;5090379;28;20412;-55
2023/02/22 06:21:29;;;;;;;16.57;6.37;;;5.60;99.90;;;;;;5089328;28;20394;-55
2023/02/22 06:23:55;;;;;;;15.13;6.55;;;5.30;1.00;;;;;;5089939;28;20489;-55
2023/02/22 06:26:21;;;;;;;15.13;6.43;;;5.20;99.90;;;;;;5090064;28;21048;-55
2023/02/22 06:28:48;;;;;;;15.05;6.82;;;5.00;99.90;;;;;;5089734;28;20899;-55
2023/02/22 06:31:14;;;;;;;13.95;6.60;;;4.90;1.00;;;;;;5089511;28;20402;-56
2023/02/22 06:33:39;;;;;;;11.70;6.22;;;5.10;1.00;;;;;;5089417;28;20393;-55
2023/02/22 06:36:06;;;;;;;13.83;7.30;;;5.00;1.00;;;;;;5089657;28;20406;-55
2023/02/22 06:38:32;;;;;;;13.60;6.43;;;5.10;1.00;;;;;;5088754;28;20935;-55
2023/02/22 06:40:58;;;;;;;12.65;6.18;;;5.10;1.00;;;;;;5090783;28;20418;-56
2023/02/22 06:43:24;;;;;;;16.30;7.28;;;5.20;1.00;;;;;;5089737;28;20398;-55
2023/02/22 06:45:51;;;;;;;14.88;6.80;;;5.30;1.00;;;;;;5089660;28;20394;-56
2023/02/22 06:48:17;;;;;;;14.90;6.45;;;5.70;1.00;;;;;;5090198;28;20403;-55
2023/02/22 06:50:42;;;;;;;12.67;6.30;;;5.60;1.00;;;;;;5089159;28;20843;-56
2023/02/22 06:53:08;;;;;;;14.30;6.63;;;7.30;99.90;;;;;;5089571;28;20376;-56
2023/02/22 06:55:34;;;;;;;17.50;7.28;;;6.50;1.00;;;;;;5088767;28;20422;-56
2023/02/22 06:58:00;;;;;;;14.80;7.03;;;6.00;99.90;;;;;;5089459;28;20398;-57
2023/02/22 07:00:28;;;;;;;14.43;6.45;;;6.30;99.90;;;;;;5088353;28;20393;-57
2023/02/22 07:02:54;;;;;;;14.10;7.00;;;7.90;1.00;;;;;;5089985;28;20476;-58
2023/02/22 07:05:22;;;;;;;14.15;6.82;;;6.60;99.90;;;;;;5061416;28;20750;-56
2023/02/22 07:07:49;;;;;;;15.50;6.73;;;7.30;99.90;;;;;;5079754;28;20404;-56
2023/02/22 07:10:19;;;;;;;14.60;7.78;;;8.00;54.40;;;;;;5083728;28;20417;-56
2023/02/22 07:12:45;;;;;;;15.68;7.10;;;8.10;1.00;;;;;;5088429;28;20680;-56
2023/02/22 07:15:12;;;;;;;13.47;6.23;;;9.00;99.90;;;;;;5084139;28;20887;-56
2023/02/22 07:17:40;;;;;;;13.88;6.47;;;10.00;99.90;;;;;;5088612;28;20405;-56
2023/02/22 07:20:06;;;;;;;14.47;7.00;;;10.70;1.00;;;;;;5089210;28;20402;-57
2023/02/22 07:22:32;;;;;;;13.43;6.40;;;11.10;1.00;;;;;;5081888;28;20435;-56
2023/02/22 07:24:58;;;;;;;14.60;6.35;;;11.70;1.00;;;;;;5080574;28;20459;-56
2023/02/22 07:27:24;;;;;;;14.43;7.27;;;12.30;1.00;;;;;;5089173;28;20413;-56
2023/02/22 07:29:50;;;;;;;13.20;7.05;;;13.00;1.00;;;;;;5088845;28;20469;-56
2023/02/22 07:32:15;;;;;;;16.07;7.03;;;13.70;99.90;;;;;;5089376;28;20378;-56
2023/02/22 07:34:41;;;;;;;16.60;6.67;;;13.80;99.90;;;;;;5088402;28;20809;-57
2023/02/22 07:37:08;;;;;;;14.68;7.13;;;13.70;99.90;;;;;;5090919;28;20959;-57
2023/02/22 07:39:33;;;;;;;13.32;7.00;;;13.60;99.90;;;;;;5092155;28;20394;-57
2023/02/22 07:41:59;;;;;;;13.03;7.20;;;13.60;99.90;;;;;;5092304;28;20443;-57
2023/02/22 07:44:25;;;;;;;15.95;6.63;;;13.40;99.90;;;;;;5064878;28;20387;-57
2023/02/22 07:46:50;;;;;;;11.80;6.60;;;13.10;99.90;;;;;;5073602;28;20565;-57
2023/02/22 07:49:16;;;;;;;12.73;6.63;;;12.70;99.90;;;;;;5071761;28;20407;-57
2023/02/22 07:51:42;;;;;;;15.23;6.53;;;12.10;99.90;;;;;;5075143;28;20390;-56
2023/02/22 07:54:07;;;;;;;17.30;7.90;;;11.70;99.90;;;;;;5093060;28;20851;-56
2023/02/22 07:56:33;;;;;;;14.63;7.13;;;11.40;99.90;;;;;;5092349;28;20398;-57
2023/02/22 07:59:00;;;;;;;17.15;7.32;;;10.80;99.90;;;;;;5093008;28;20867;-56
2023/02/22 08:01:26;;;;;;;12.87;7.03;;;10.50;99.90;;;;;;5092499;28;20402;-57
2023/02/22 08:03:52;;;;;;;16.92;7.20;;;10.20;99.90;;;;;;5092831;28;20374;-57
2023/02/22 08:06:19;;;;;;;13.03;6.40;;;10.00;99.90;;;;;;5092603;28;20709;-57
2023/02/22 08:08:45;;;;;;;16.58;7.50;;;10.10;99.90;;;;;;5092183;28;20506;-57
2023/02/22 08:11:11;;;;;;;15.43;7.13;;;10.30;99.90;;;;;;5091082;28;20989;-57
2023/02/22 08:13:37;;;;;;;14.50;6.57;;;10.60;99.90;;;;;;5086233;28;20459;-57
2023/02/22 08:16:03;;;;;;;15.38;6.57;;;10.90;99.90;;;;;;5074322;28;20435;-56
2023/02/22 08:18:29;;;;;;;13.68;5.97;;;10.90;99.90;;;;;;5091355;28;20533;-57
2023/02/22 08:20:55;;;;;;;15.32;6.32;;;11.00;99.90;;;;;;5092051;28;20394;-56
2023/02/22 08:23:24;;;;;;;13.30;6.70;;;11.10;99.90;;;;;;5092583;28;20382;-57
2023/02/22 08:25:49;;;;;;;11.38;6.20;;;11.30;99.90;;;;;;5091706;28;20394;-56
2023/02/22 08:28:18;;;;;;;15.10;6.90;;;11.40;99.90;;;;;;5074612;28;20756;-57
2023/02/22 08:30:44;;;;;;;14.40;6.40;;;11.70;99.90;;;;;;5065476;28;20390;-57
2023/02/22 08:33:15;;;;;;;11.67;6.27;;;12.10;99.90;;;;;;5092884;28;20389;-57
2023/02/22 08:35:41;;;;;;;12.02;5.80;;;12.60;99.90;;;;;;5091550;28;20495;-58
2023/02/22 08:38:14;;;;;;;9.63;5.70;;;13.20;99.90;;;;;;5091699;28;20400;-58
2023/02/22 08:40:39;;;;;;;12.52;5.80;;;13.80;99.90;;;;;;5051621;28;20484;-58
2023/02/22 08:43:05;;;;;;;15.17;6.80;;;14.80;99.90;;;;;;5051866;28;20474;-57
2023/02/22 08:45:31;;;;;;;13.48;6.38;;;15.00;99.90;;;;;;5051240;28;20732;-58
2023/02/22 08:47:58;;;;;;;10.98;5.57;;;15.20;99.90;;;;;;5051643;28;20385;-58
2023/02/22 08:50:30;;;;;;;13.32;5.95;;;15.70;99.90;;;;;;5090246;28;20386;-58
2023/02/22 08:53:00;;;;;;;12.82;6.38;;;16.80;99.90;;;;;;5091516;28;20386;-58
2023/02/22 08:55:30;;;;;;;14.07;6.50;;;17.20;99.90;;;;;;5091554;28;20491;-58
2023/02/22 08:57:58;;;;;;;12.37;6.37;;;17.80;99.90;;;;;;5091348;28;20747;-58
2023/02/22 09:00:25;;;;;;;14.55;8.30;;;19.00;99.90;;;;;;5084616;28;20554;-58
2023/02/22 09:02:52;;;;;;;13.35;9.40;;;19.80;99.90;;;;;;5091313;28;20386;-58
2023/02/22 09:05:17;;;;;;;13.00;9.90;;;19.70;99.90;;;;;;5091849;28;20443;-58
2023/02/22 09:07:43;;;;;;;12.70;9.30;;;19.70;99.90;;;;;;5090085;28;20872;-58
2023/02/22 09:10:17;;;;;;;13.85;9.73;;;19.20;99.90;;;;;;5091490;28;20487;-58
2023/02/22 09:12:43;;;;;;;15.02;9.65;;;19.10;99.90;;;;;;5090802;28;20495;-58
2023/02/22 09:15:10;;;;;;;12.83;9.07;;;18.70;99.90;;;;;;5089476;28;20402;-58
2023/02/22 09:17:38;;;;;;;12.05;7.65;;;18.60;99.90;;;;;;5080405;28;20400;-58
2023/02/22 09:20:07;;;;;;;13.50;8.10;;;18.10;99.90;;;;;;5088972;28;20451;-58
2023/02/22 09:22:33;;;;;;;14.65;8.63;;;18.10;99.90;;;;;;5090233;28;20391;-58
2023/02/22 09:24:59;;;;;;;13.05;8.32;;;17.80;99.90;;;;;;5091275;28;20756;-58
2023/02/22 09:27:27;;;;;;;14.80;8.55;;;17.60;99.90;;;;;;5079538;28;20456;-58
2023/02/22 09:29:57;;;;;;;13.43;8.50;;;17.70;99.90;;;;;;5070549;28;20380;-59
2023/02/22 09:32:26;;;;;;;16.48;9.85;;;18.00;99.90;;;;;;5070870;28;20376;-59
2023/02/22 09:34:54;;;;;;;16.30;11.40;;;19.20;99.90;;;;;;5070505;28;20411;-58
2023/02/22 09:37:21;;;;;;;14.53;11.10;;;19.60;99.90;;;;;;5069440;28;20441;-58
2023/02/22 09:39:47;;;;;;;16.92;13.73;;;20.70;99.90;;;;;;5083553;28;20374;-59
2023/02/22 09:42:46;;;;;;;15.05;13.45;;;21.30;99.90;;;;;;5091051;28;20380;-59
2023/02/22 09:45:31;;;;;;;15.30;13.70;;;21.00;99.90;;;;;;5090704;28;20417;-58
2023/02/22 09:48:01;;;;;;;15.48;12.35;;;20.70;99.90;;;;;;5091168;28;20494;-58
2023/02/22 09:50:36;;;;;;;16.92;13.77;;;20.40;99.90;;;;;;5090163;28;20421;-58
2023/02/22 09:53:28;;;;;;;13.82;12.18;;;20.80;99.90;;;;;;5090468;28;20390;-59
2023/02/22 09:56:06;;;;;;;15.45;13.50;;;21.70;99.90;;;;;;5090097;28;20490;-59
2023/02/22 09:58:35;;;;;;;13.05;6.70;;;22.30;99.90;;;;;;5089322;28;20482;-59
2023/02/22 10:01:31;;;;;;;14.00;6.53;;;22.30;99.90;;;;;;5090173;28;20405;-58
2023/02/22 10:04:23;;;;;;;13.50;7.55;;;22.30;99.90;;;;;;5072741;28;20857;-58
2023/02/22 10:07:10;;;;;;;14.27;6.45;;;22.60;99.90;;;;;;5089781;28;20394;-60
2023/02/22 10:09:42;;;;;;;12.57;7.20;;;21.70;99.90;;;;;;5077703;28;20843;-59
2023/02/22 10:12:19;;;;;;;13.80;7.00;;;21.10;99.90;;;;;;5089705;28;20386;-58
2023/02/22 10:15:03;;;;;;;11.50;6.50;;;21.50;99.90;;;;;;5075634;28;20419;-58
2023/02/22 10:17:32;;;;;;;12.55;6.70;;;21.20;99.90;;;;;;5072228;28;20577;-60
2023/02/22 10:20:03;;;;;;;14.20;7.50;;;21.20;99.90;;;;;;5090339;28;20386;-58
2023/02/22 10:22:50;;;;;;;13.52;7.35;;;21.00;99.90;;;;;;5089511;28;20413;-59
2023/02/22 10:25:22;;;;;;;11.88;6.72;;;20.60;99.90;;;;;;5089630;28;20885;-58
2023/02/22 10:28:17;;;;;;;12.57;6.53;;;20.90;99.90;;;;;;5089074;28;20557;-57
2023/02/22 10:30:54;;;;;;;13.48;6.28;;;21.10;99.90;;;;;;5085260;28;20451;-58
2023/02/22 10:33:40;;;;;;;16.10;6.65;;;21.20;99.90;;;;;;5086037;28;20434;-58
2023/02/22 10:36:17;;;;;;;15.20;6.60;;;20.70;99.90;;;;;;5069922;28;20408;-60
2023/02/22 10:38:52;;;;;;;16.13;7.18;;;20.30;99.90;;;;;;5069265;28;20376;-59
2023/02/22 10:41:25;;;;;;;14.30;6.72;;;20.00;99.90;;;;;;5081470;28;20506;-60
2023/02/22 10:43:51;;;;;;;13.13;6.50;;;20.20;99.90;;;;;;5088204;28;20954;-61
2023/02/22 10:46:20;;;;;;;12.90;6.93;;;20.30;99.90;;;;;;5089797;28;20465;-61
2023/02/22 10:48:50;;;;;;;13.87;6.50;;;20.80;99.90;;;;;;5088980;28;20731;-60
2023/02/22 10:51:16;;;;;;;14.93;6.85;;;20.30;99.90;;;;;;5069467;28;20387;-60
2023/02/22 10:53:45;;;;;;;13.23;6.65;;;19.90;99.90;;;;;;5068738;28;20372;-59
2023/02/22 10:56:22;;;;;;;12.93;6.80;;;19.70;99.90;;;;;;5069646;28;20473;-59
2023/02/22 10:59:01;;;;;;;14.25;6.82;;;19.10;99.90;;;;;;5068489;28;20419;-59
2023/02/22 11:01:39;;;;;;;15.63;6.80;;;18.90;99.90;;;;;;5073409;28;20458;-59
2023/02/22 11:04:23;;;;;;;16.07;7.30;;;18.70;99.90;;;;;;5089683;28;20436;-59
2023/02/22 11:07:08;;;;;;;15.70;7.73;;;17.80;99.90;;;;;;5089008;28;20490;-57
2023/02/22 11:09:58;;;;;;;13.82;6.85;;;17.50;99.90;;;;;;5088676;28;20373;-57
2023/02/22 11:12:33;;;;;;;17.90;7.97;;;17.70;99.90;;;;;;5088788;28;20713;-56
2023/02/22 11:15:17;;;;;;;13.40;6.80;;;18.10;99.90;;;;;;5075630;28;20437;-56
2023/02/22 11:17:48;;;;;;;14.50;6.73;;;18.40;99.90;;;;;;5087961;28;20900;-57
2023/02/22 11:20:41;;;;;;;14.80;7.38;;;18.60;99.90;;;;;;5089173;28;20393;-57
2023/02/22 11:23:07;;;;;;;13.93;6.97;;;18.70;99.90;;;;;;5084582;28;20779;-59
2023/02/22 11:25:34;;;;;;;14.65;7.40;;;19.00;99.90;;;;;;5086310;28;20410;-59
2023/02/22 11:28:14;;;;;;;15.48;7.55;;;19.10;99.90;;;;;;5076339;28;20399;-60
2023/02/22 11:30:43;;;;;;;15.55;7.50;;;19.40;99.90;;;;;;5073424;28;20448;-59
2023/02/22 11:33:15;;;;;;;13.35;6.70;;;19.50;99.90;;;;;;5089476;28;20382;-59
2023/02/22 11:36:03;;;;;;;14.88;7.70;;;19.70;99.90;;;;;;5088457;28;20402;-59
2023/02/22 11:38:33;;;;;;;15.45;7.60;;;19.50;99.90;;;;;;5088811;28;20488;-59
2023/02/22 11:41:28;;;;;;;16.92;7.78;;;19.50;99.90;;;;;;5089177;28;20366;-59
2023/02/22 11:44:22;;;;;;;16.50;7.30;;;19.50;99.90;;;;;;5073775;28;20884;-59
2023/02/22 11:46:48;;;;;;;17.20;7.40;;;19.20;99.90;;;;;;5066444;28;21010;-59
2023/02/22 11:49:16;;;;;;;16.48;8.25;;;19.20;99.90;;;;;;5069125;28;20387;-59
2023/02/22 11:51:56;;;;;;;15.13;7.45;;;18.50;99.90;;;;;;5068205;28;20524;-58
2023/02/22 11:55:00;;;;;;;16.38;8.20;;;18.20;99.90;;;;;;5068539;28;20443;-57
2023/02/22 11:57:32;;;;;;;16.30;7.35;;;18.00;99.90;;;;;;5068861;28;20384;-57
2023/02/22 12:00:23;;;;;;;16.48;6.90;;;18.20;99.90;;;;;;5068602;28;20384;-57
2023/02/22 12:03:07;;;;;;;16.60;6.97;;;18.40;99.90;;;;;;5068582;28;20455;-57
2023/02/22 12:05:44;;;;;;;15.80;7.70;;;18.30;99.90;;;;;;5068270;28;20399;-57
2023/02/22 12:08:20;;;;;;;17.37;8.23;;;18.10;99.90;;;;;;5069101;28;20396;-57
2023/02/22 12:11:00;;;;;;;15.32;7.50;;;17.80;99.90;;;;;;5068151;28;20380;-57
2023/02/22 12:13:52;;;;;;;14.63;8.10;;;17.70;99.90;;;;;;5068782;28;20893;-57
2023/02/22 12:16:56;;;;;;;14.32;7.50;;;17.60;99.90;;;;;;5068738;28;20516;-57
2023/02/22 12:19:24;;;;;;;14.85;7.72;;;17.80;99.90;;;;;;5068906;28;20420;-59
2023/02/22 12:22:07;;;;;;;12.45;7.07;;;17.80;99.90;;;;;;5068347;28;20433;-60
2023/02/22 12:24:38;;;;;;;14.32;7.35;;;17.80;99.90;;;;;;5071031;28;20423;-59
2023/02/22 12:27:26;;;;;;;14.43;7.55;;;17.60;99.90;;;;;;5071954;28;20418;-58
2023/02/22 12:29:58;;;;;;;15.25;8.13;;;17.60;99.90;;;;;;5059336;28;20806;-58
2023/02/22 12:32:45;;;;;;;16.60;7.90;;;17.60;99.90;;;;;;5070402;28;20513;-59
2023/02/22 12:35:25;;;;;;;16.88;7.90;;;17.50;99.90;;;;;;5072071;28;20480;-58
2023/02/22 12:38:06;;;;;;;17.87;8.07;;;17.50;99.90;;;;;;5071632;28;20449;-59
2023/02/22 12:40:44;;;;;;;16.83;7.80;;;17.30;99.90;;;;;;5071372;28;20399;-57
2023/02/22 12:43:21;;;;;;;14.15;7.63;;;17.20;99.90;;;;;;5071711;28;20380;-57
2023/02/22 12:45:53;;;;;;;16.17;9.10;;;17.60;99.90;;;;;;5071216;28;20420;-57
2023/02/22 12:49:02;;;;;;;15.13;7.80;;;18.00;99.90;;;;;;5072171;28;20380;-56
2023/02/22 12:51:47;;;;;;;16.43;8.13;;;18.20;99.90;;;;;;5048156;28;20845;-58
2023/02/22 12:54:32;;;;;;;17.53;7.97;;;18.20;99.90;;;;;;5071718;28;20380;-58
2023/02/22 12:57:19;;;;;;;16.00;8.50;;;18.20;99.90;;;;;;5071742;28;20387;-59
2023/02/22 12:59:50;;;;;;;16.35;7.72;;;18.10;99.90;;;;;;5070658;28;20752;-59
2023/02/22 13:02:31;;;;;;;17.75;8.60;;;17.90;99.90;;;;;;5071726;28;20955;-59
2023/02/22 13:04:57;;;;;;;15.23;7.20;;;17.90;99.90;;;;;;5071570;28;20380;-59
2023/02/22 13:08:01;;;;;;;17.30;8.30;;;17.80;99.90;;;;;;5071656;28;20430;-59